sensor_id;sensor_type;location;lat;lon;timestamp;pressure;altitude;pressure_sealevel;temperature;humidity
17362;BME280;8798;51.938;4.348;2023-03-21T00:00:52;101745.28;;;11.29;83.96
17362;BME280;8798;51.938;4.348;2023-03-21T00:03:20;101737.34;;;11.27;83.91
17362;BME280;8798;51.938;4.348;2023-03-21T00:05:48;101746.97;;;11.30;84.31
17362;BME280;8798;51.938;4.348;2023-03-21T00:08:19;101744.28;;;11.30;83.94
17362;BME280;8798;51.938;4.348;2023-03-21T00:10:47;101742.59;;;11.29;84.26
17362;BME280;8798;51.938;4.348;2023-03-21T00:13:23;101737.94;;;11.31;83.90
17362;BME280;8798;51.938;4.348;2023-03-21T00:15:52;101730.13;;;11.28;84.04
17362;BME280;8798;51.938;4.348;2023-03-21T00:18:41;101721.34;;;11.26;83.98
17362;BME280;8798;51.938;4.348;2023-03-21T00:21:13;101716.09;;;11.24;83.77
17362;BME280;8798;51.938;4.348;2023-03-21T00:24:02;101711.56;;;11.25;83.96
17362;BME280;8798;51.938;4.348;2023-03-21T00:26:29;101711.72;;;11.23;83.73
17362;BME280;8798;51.938;4.348;2023-03-21T00:29:00;101694.84;;;11.21;83.82
17362;BME280;8798;51.938;4.348;2023-03-21T00:31:27;101684.38;;;11.18;84.15
17362;BME280;8798;51.938;4.348;2023-03-21T00:33:55;101679.97;;;11.17;83.62
17362;BME280;8798;51.938;4.348;2023-03-21T00:36:23;101686.06;;;11.19;83.71
17362;BME280;8798;51.938;4.348;2023-03-21T00:38:53;101690.31;;;11.22;84.18
17362;BME280;8798;51.938;4.348;2023-03-21T00:41:21;101686.91;;;11.19;83.69
17362;BME280;8798;51.938;4.348;2023-03-21T00:44:07;101686.78;;;11.21;83.72
17362;BME280;8798;51.938;4.348;2023-03-21T00:46:36;101695.69;;;11.22;83.97
17362;BME280;8798;51.938;4.348;2023-03-21T00:49:19;101686.91;;;11.19;84.03
17362;BME280;8798;51.938;4.348;2023-03-21T00:51:47;101685.94;;;11.21;84.15
17362;BME280;8798;51.938;4.348;2023-03-21T00:54:17;101686.78;;;11.21;84.47
17362;BME280;8798;51.938;4.348;2023-03-21T00:56:45;101692.16;;;11.21;83.79
17362;BME280;8798;51.938;4.348;2023-03-21T00:59:14;101691.16;;;11.22;83.74
17362;BME280;8798;51.938;4.348;2023-03-21T01:01:43;101693.72;;;11.24;83.99
17362;BME280;8798;51.938;4.348;2023-03-21T01:04:13;101697.25;;;11.24;84.37
17362;BME280;8798;51.938;4.348;2023-03-21T01:06:43;101699.00;;;11.25;84.17
17362;BME280;8798;51.938;4.348;2023-03-21T01:09:12;101705.94;;;11.28;83.98
17362;BME280;8798;51.938;4.348;2023-03-21T01:11:41;101701.53;;;11.27;84.43
17362;BME280;8798;51.938;4.348;2023-03-21T01:14:09;101694.44;;;11.26;83.89
17362;BME280;8798;51.938;4.348;2023-03-21T01:16:50;101682.97;;;11.24;84.51
17362;BME280;8798;51.938;4.348;2023-03-21T01:19:20;101687.34;;;11.25;83.87
17362;BME280;8798;51.938;4.348;2023-03-21T01:21:56;101689.91;;;11.26;83.84
17362;BME280;8798;51.938;4.348;2023-03-21T01:24:24;101690.75;;;11.27;84.40
17362;BME280;8798;51.938;4.348;2023-03-21T01:26:52;101694.44;;;11.26;84.35
17362;BME280;8798;51.938;4.348;2023-03-21T01:29:20;101689.91;;;11.26;84.26
17362;BME280;8798;51.938;4.348;2023-03-21T01:31:49;101689.06;;;11.26;84.40
17362;BME280;8798;51.938;4.348;2023-03-21T01:34:17;101682.84;;;11.25;84.44
17362;BME280;8798;51.938;4.348;2023-03-21T01:36:45;101678.44;;;11.24;83.87
17362;BME280;8798;51.938;4.348;2023-03-21T01:39:12;101666.00;;;11.23;84.26
17362;BME280;8798;51.938;4.348;2023-03-21T01:41:41;101651.09;;;11.19;84.23
17362;BME280;8798;51.938;4.348;2023-03-21T01:44:14;101646.56;;;11.19;83.80
17362;BME280;8798;51.938;4.348;2023-03-21T01:46:44;101636.81;;;11.18;84.22
17362;BME280;8798;51.938;4.348;2023-03-21T01:49:37;101642.19;;;11.18;83.91
17362;BME280;8798;51.938;4.348;2023-03-21T01:52:08;101641.47;;;11.16;83.73
17362;BME280;8798;51.938;4.348;2023-03-21T01:54:46;101623.66;;;11.15;84.19
17362;BME280;8798;51.938;4.348;2023-03-21T01:57:18;101626.34;;;11.15;83.70
17362;BME280;8798;51.938;4.348;2023-03-21T01:59:53;101625.47;;;11.15;84.11
17362;BME280;8798;51.938;4.348;2023-03-21T02:02:24;101633.41;;;11.16;83.97
17362;BME280;8798;51.938;4.348;2023-03-21T02:04:55;101633.41;;;11.16;84.33
17362;BME280;8798;51.938;4.348;2023-03-21T02:07:26;101617.38;;;11.15;84.27
17362;BME280;8798;51.938;4.348;2023-03-21T02:09:55;101613.13;;;11.12;84.03
17362;BME280;8798;51.938;4.348;2023-03-21T02:12:25;101605.06;;;11.12;84.42
17362;BME280;8798;51.938;4.348;2023-03-21T02:14:54;101603.38;;;11.11;83.59
17362;BME280;8798;51.938;4.348;2023-03-21T02:17:27;101607.75;;;11.12;84.22
17362;BME280;8798;51.938;4.348;2023-03-21T02:20:26;101604.22;;;11.12;83.67
17362;BME280;8798;51.938;4.348;2023-03-21T02:23:15;101598.00;;;11.11;83.81
17362;BME280;8798;51.938;4.348;2023-03-21T02:26:15;101609.31;;;11.15;83.71
17362;BME280;8798;51.938;4.348;2023-03-21T02:28:50;101610.19;;;11.15;83.99
17362;BME280;8798;51.938;4.348;2023-03-21T02:31:27;101625.06;;;11.19;84.03
17362;BME280;8798;51.938;4.348;2023-03-21T02:37:21;101626.78;;;11.21;83.58
17362;BME280;8798;51.938;4.348;2023-03-21T02:40:08;101627.75;;;11.19;83.68
17362;BME280;8798;51.938;4.348;2023-03-21T02:42:47;101621.41;;;11.21;83.90
17362;BME280;8798;51.938;4.348;2023-03-21T02:45:30;101617.84;;;11.20;83.81
17362;BME280;8798;51.938;4.348;2023-03-21T02:48:02;101618.84;;;11.19;84.05
17362;BME280;8798;51.938;4.348;2023-03-21T02:50:34;101619.69;;;11.19;83.99
17362;BME280;8798;51.938;4.348;2023-03-21T02:53:08;101620.53;;;11.20;83.79
17362;BME280;8798;51.938;4.348;2023-03-21T02:55:38;101618.72;;;11.21;84.15
17362;BME280;8798;51.938;4.348;2023-03-21T02:58:12;101608.78;;;11.21;84.11
17362;BME280;8798;51.938;4.348;2023-03-21T03:00:42;101624.81;;;11.23;83.63
17362;BME280;8798;51.938;4.348;2023-03-21T03:03:11;101628.19;;;11.25;83.50
17362;BME280;8798;51.938;4.348;2023-03-21T03:05:58;101643.19;;;11.27;83.59
17362;BME280;8798;51.938;4.348;2023-03-21T03:08:33;101637.81;;;11.27;83.74
17362;BME280;8798;51.938;4.348;2023-03-21T03:11:24;101632.44;;;11.27;83.67
17362;BME280;8798;51.938;4.348;2023-03-21T03:14:04;101628.06;;;11.26;83.97
17362;BME280;8798;51.938;4.348;2023-03-21T03:17:04;101618.31;;;11.25;84.04
17362;BME280;8798;51.938;4.348;2023-03-21T03:19:46;101619.28;;;11.24;84.14
17362;BME280;8798;51.938;4.348;2023-03-21T03:22:23;101612.03;;;11.25;83.67
17362;BME280;8798;51.938;4.348;2023-03-21T03:24:57;101618.31;;;11.25;83.58
17362;BME280;8798;51.938;4.348;2023-03-21T03:27:40;101602.28;;;11.24;83.63
17362;BME280;8798;51.938;4.348;2023-03-21T03:30:11;101595.22;;;11.23;83.37
17362;BME280;8798;51.938;4.348;2023-03-21T03:32:44;101601.44;;;11.23;83.26
17362;BME280;8798;51.938;4.348;2023-03-21T03:35:15;101596.19;;;11.22;83.57
17362;BME280;8798;51.938;4.348;2023-03-21T03:37:47;101599.59;;;11.24;83.97
17362;BME280;8798;51.938;4.348;2023-03-21T03:40:19;101601.28;;;11.25;83.42
17362;BME280;8798;51.938;4.348;2023-03-21T03:42:51;101612.78;;;11.27;83.97
17362;BME280;8798;51.938;4.348;2023-03-21T03:45:24;101618.88;;;11.29;83.67
17362;BME280;8798;51.938;4.348;2023-03-21T03:47:58;101613.47;;;11.29;83.36
17362;BME280;8798;51.938;4.348;2023-03-21T03:50:31;101599.19;;;11.28;84.19
17362;BME280;8798;51.938;4.348;2023-03-21T03:53:05;101603.72;;;11.28;83.87
17362;BME280;8798;51.938;4.348;2023-03-21T03:55:45;101592.09;;;11.27;83.27
17362;BME280;8798;51.938;4.348;2023-03-21T03:58:16;101595.78;;;11.26;83.17
17362;BME280;8798;51.938;4.348;2023-03-21T04:00:52;101595.66;;;11.28;83.56
17362;BME280;8798;51.938;4.348;2023-03-21T04:03:20;101592.09;;;11.27;83.16
17362;BME280;8798;51.938;4.348;2023-03-21T04:05:48;101595.66;;;11.28;83.38
17362;BME280;8798;51.938;4.348;2023-03-21T04:08:16;101585.88;;;11.27;83.52
17362;BME280;8798;51.938;4.348;2023-03-21T04:10:45;101580.50;;;11.27;82.85
17362;BME280;8798;51.938;4.348;2023-03-21T04:13:13;101585.88;;;11.27;83.17
17362;BME280;8798;51.938;4.348;2023-03-21T04:15:42;101581.50;;;11.26;83.30
17362;BME280;8798;51.938;4.348;2023-03-21T04:18:10;101582.34;;;11.26;83.39
17362;BME280;8798;51.938;4.348;2023-03-21T04:20:38;101590.97;;;11.30;82.97
17362;BME280;8798;51.938;4.348;2023-03-21T04:23:06;101605.84;;;11.34;83.13
17362;BME280;8798;51.938;4.348;2023-03-21T04:25:34;101604.84;;;11.35;83.69
17362;BME280;8798;51.938;4.348;2023-03-21T04:28:11;101608.41;;;11.35;82.99
17362;BME280;8798;51.938;4.348;2023-03-21T04:30:39;101601.19;;;11.36;83.40
17362;BME280;8798;51.938;4.348;2023-03-21T04:33:24;101604.72;;;11.36;82.92
17362;BME280;8798;51.938;4.348;2023-03-21T04:35:52;101606.44;;;11.37;83.00
17362;BME280;8798;51.938;4.348;2023-03-21T04:38:22;101602.88;;;11.37;83.00
17362;BME280;8798;51.938;4.348;2023-03-21T04:40:49;101603.75;;;11.37;82.97
17362;BME280;8798;51.938;4.348;2023-03-21T04:43:19;101602.88;;;11.37;83.37
17362;BME280;8798;51.938;4.348;2023-03-21T04:45:46;101605.44;;;11.38;82.84
17362;BME280;8798;51.938;4.348;2023-03-21T04:48:14;101598.22;;;11.39;83.39
17362;BME280;8798;51.938;4.348;2023-03-21T04:50:43;101600.06;;;11.38;82.51
17362;BME280;8798;51.938;4.348;2023-03-21T04:53:11;101593.84;;;11.38;82.69
17362;BME280;8798;51.938;4.348;2023-03-21T04:55:39;101597.38;;;11.38;82.66
17362;BME280;8798;51.938;4.348;2023-03-21T04:58:07;101589.31;;;11.38;83.17
17362;BME280;8798;51.938;4.348;2023-03-21T05:00:37;101580.38;;;11.38;82.61
17362;BME280;8798;51.938;4.348;2023-03-21T05:03:06;101581.34;;;11.37;82.64
17362;BME280;8798;51.938;4.348;2023-03-21T05:05:35;101571.47;;;11.37;82.48
17362;BME280;8798;51.938;4.348;2023-03-21T05:08:04;101567.06;;;11.36;83.20
17362;BME280;8798;51.938;4.348;2023-03-21T05:10:32;101562.69;;;11.35;82.64
17362;BME280;8798;51.938;4.348;2023-03-21T05:13:00;101554.75;;;11.34;82.45
17362;BME280;8798;51.938;4.348;2023-03-21T05:15:28;101547.69;;;11.33;82.89
17362;BME280;8798;51.938;4.348;2023-03-21T05:17:58;101541.59;;;11.31;82.67
17362;BME280;8798;51.938;4.348;2023-03-21T05:20:35;101539.59;;;11.33;82.97
17362;BME280;8798;51.938;4.348;2023-03-21T05:23:03;101535.19;;;11.32;82.82
17362;BME280;8798;51.938;4.348;2023-03-21T05:25:31;101529.81;;;11.32;82.81
17362;BME280;8798;51.938;4.348;2023-03-21T05:28:01;101543.16;;;11.33;82.15
17362;BME280;8798;51.938;4.348;2023-03-21T05:30:29;101549.25;;;11.35;82.44
17362;BME280;8798;51.938;4.348;2023-03-21T05:32:58;101546.38;;;11.37;82.84
17362;BME280;8798;51.938;4.348;2023-03-21T05:35:26;101550.81;;;11.38;82.21
17362;BME280;8798;51.938;4.348;2023-03-21T05:37:54;101549.06;;;11.37;82.54
17362;BME280;8798;51.938;4.348;2023-03-21T05:40:22;101531.38;;;11.34;82.52
17362;BME280;8798;51.938;4.348;2023-03-21T05:42:50;101533.22;;;11.34;82.55
17362;BME280;8798;51.938;4.348;2023-03-21T05:45:18;101529.53;;;11.35;82.30
17362;BME280;8798;51.938;4.348;2023-03-21T05:47:46;101526.00;;;11.34;82.58
17362;BME280;8798;51.938;4.348;2023-03-21T05:50:15;101537.47;;;11.36;82.58
17362;BME280;8798;51.938;4.348;2023-03-21T05:52:43;101537.47;;;11.36;82.48
17362;BME280;8798;51.938;4.348;2023-03-21T05:55:11;101528.56;;;11.36;82.16
17362;BME280;8798;51.938;4.348;2023-03-21T05:57:39;101531.25;;;11.36;81.88
17362;BME280;8798;51.938;4.348;2023-03-21T06:00:08;101517.94;;;11.34;82.26
17362;BME280;8798;51.938;4.348;2023-03-21T06:02:36;101506.47;;;11.32;81.85
17362;BME280;8798;51.938;4.348;2023-03-21T06:05:05;101503.09;;;11.30;82.35
17362;BME280;8798;51.938;4.348;2023-03-21T06:07:35;101488.75;;;11.30;82.13
17362;BME280;8798;51.938;4.348;2023-03-21T06:10:03;101490.78;;;11.28;82.27
17362;BME280;8798;51.938;4.348;2023-03-21T06:12:32;101493.47;;;11.28;82.17
17362;BME280;8798;51.938;4.348;2023-03-21T06:15:00;101497.00;;;11.28;82.09
17362;BME280;8798;51.938;4.348;2023-03-21T06:17:27;101488.91;;;11.28;81.60
17362;BME280;8798;51.938;4.348;2023-03-21T06:19:55;101492.47;;;11.29;82.07
17362;BME280;8798;51.938;4.348;2023-03-21T06:22:23;101478.28;;;11.27;82.30
17362;BME280;8798;51.938;4.348;2023-03-21T06:24:52;101471.34;;;11.24;81.92
17362;BME280;8798;51.938;4.348;2023-03-21T06:27:20;101466.13;;;11.23;81.51
17362;BME280;8798;51.938;4.348;2023-03-21T06:29:48;101461.59;;;11.23;81.57
17362;BME280;8798;51.938;4.348;2023-03-21T06:32:16;101436.09;;;11.17;81.90
17362;BME280;8798;51.938;4.348;2023-03-21T06:34:43;101417.72;;;11.13;81.50
17362;BME280;8798;51.938;4.348;2023-03-21T06:37:11;101389.72;;;11.06;82.01
17362;BME280;8798;51.938;4.348;2023-03-21T06:39:39;101381.06;;;11.02;81.53
17362;BME280;8798;51.938;4.348;2023-03-21T06:42:08;101348.38;;;10.97;81.69
17362;BME280;8798;51.938;4.348;2023-03-21T06:44:36;101341.44;;;10.94;81.31
17362;BME280;8798;51.938;4.348;2023-03-21T06:47:04;101341.59;;;10.93;81.74
17362;BME280;8798;51.938;4.348;2023-03-21T06:49:32;101337.22;;;10.92;81.90
17362;BME280;8798;51.938;4.348;2023-03-21T06:52:00;101337.34;;;10.90;81.55
17362;BME280;8798;51.938;4.348;2023-03-21T06:54:28;101339.91;;;10.92;81.58
17362;BME280;8798;51.938;4.348;2023-03-21T06:56:56;101338.91;;;10.93;81.60
17362;BME280;8798;51.938;4.348;2023-03-21T06:59:25;101342.44;;;10.93;82.01
17362;BME280;8798;51.938;4.348;2023-03-21T07:01:53;101344.28;;;10.93;81.58
17362;BME280;8798;51.938;4.348;2023-03-21T07:04:20;101340.91;;;10.91;81.72
17362;BME280;8798;51.938;4.348;2023-03-21T07:06:48;101343.59;;;10.91;81.75
17362;BME280;8798;51.938;4.348;2023-03-21T07:09:16;101351.34;;;10.94;81.69
17362;BME280;8798;51.938;4.348;2023-03-21T07:11:46;101358.41;;;10.95;81.61
17362;BME280;8798;51.938;4.348;2023-03-21T07:14:15;101359.13;;;10.97;81.90
17362;BME280;8798;51.938;4.348;2023-03-21T07:16:44;101382.91;;;11.02;81.83
17362;BME280;8798;51.938;4.348;2023-03-21T07:19:12;101407.53;;;11.07;81.68
17362;BME280;8798;51.938;4.348;2023-03-21T07:21:41;101413.63;;;11.09;82.14
17362;BME280;8798;51.938;4.348;2023-03-21T07:24:09;101428.47;;;11.13;81.83
17362;BME280;8798;51.938;4.348;2023-03-21T07:26:36;101445.31;;;11.15;81.72
17362;BME280;8798;51.938;4.348;2023-03-21T07:29:04;101455.63;;;11.19;81.89
17362;BME280;8798;51.938;4.348;2023-03-21T07:31:32;101463.44;;;11.23;81.96
17362;BME280;8798;51.938;4.348;2023-03-21T07:34:02;101484.50;;;11.27;82.13
17362;BME280;8798;51.938;4.348;2023-03-21T07:36:30;101487.06;;;11.29;81.61
17362;BME280;8798;51.938;4.348;2023-03-21T07:38:58;101498.53;;;11.31;81.78
17362;BME280;8798;51.938;4.348;2023-03-21T07:41:25;101502.09;;;11.31;81.44
17362;BME280;8798;51.938;4.348;2023-03-21T07:43:53;101505.47;;;11.33;82.23
17362;BME280;8798;51.938;4.348;2023-03-21T07:46:21;101518.53;;;11.38;81.87
17362;BME280;8798;51.938;4.348;2023-03-21T07:48:49;101536.06;;;11.42;81.46
17362;BME280;8798;51.938;4.348;2023-03-21T07:51:18;101549.09;;;11.47;81.90
17362;BME280;8798;51.938;4.348;2023-03-21T07:53:46;101551.66;;;11.48;81.60
17362;BME280;8798;51.938;4.348;2023-03-21T07:56:14;101560.44;;;11.50;81.54
17362;BME280;8798;51.938;4.348;2023-03-21T07:58:42;101568.34;;;11.52;82.14
17362;BME280;8798;51.938;4.348;2023-03-21T08:01:09;101570.78;;;11.55;81.56
17362;BME280;8798;51.938;4.348;2023-03-21T08:03:37;101591.75;;;11.61;81.89
17362;BME280;8798;51.938;4.348;2023-03-21T08:06:06;101634.09;;;11.69;81.46
17362;BME280;8798;51.938;4.348;2023-03-21T08:08:35;101659.47;;;11.76;81.82
17362;BME280;8798;51.938;4.348;2023-03-21T08:11:04;101665.28;;;11.81;81.78
17362;BME280;8798;51.938;4.348;2023-03-21T08:13:32;101690.81;;;11.87;81.50
17362;BME280;8798;51.938;4.348;2023-03-21T08:16:00;101709.97;;;11.93;82.05
17362;BME280;8798;51.938;4.348;2023-03-21T08:18:28;101736.19;;;12.01;81.51
17362;BME280;8798;51.938;4.348;2023-03-21T08:20:56;101744.00;;;12.04;81.69
17362;BME280;8798;51.938;4.348;2023-03-21T08:23:24;101757.91;;;12.09;81.93
17362;BME280;8798;51.938;4.348;2023-03-21T08:25:54;101784.16;;;12.17;81.87
17362;BME280;8798;51.938;4.348;2023-03-21T08:28:22;101791.09;;;12.19;81.64
17362;BME280;8798;51.938;4.348;2023-03-21T08:30:50;101797.06;;;12.23;81.79
17362;BME280;8798;51.938;4.348;2023-03-21T08:33:18;101798.63;;;12.25;82.11
17362;BME280;8798;51.938;4.348;2023-03-21T08:35:46;101808.97;;;12.30;81.59
17362;BME280;8798;51.938;4.348;2023-03-21T08:38:14;101813.25;;;12.33;81.76
17362;BME280;8798;51.938;4.348;2023-03-21T08:40:42;101830.69;;;12.38;81.51
17362;BME280;8798;51.938;4.348;2023-03-21T08:43:11;101843.75;;;12.43;81.90
17362;BME280;8798;51.938;4.348;2023-03-21T08:45:40;101855.09;;;12.46;81.66
17362;BME280;8798;51.938;4.348;2023-03-21T08:48:08;101883.06;;;12.55;81.84
17362;BME280;8798;51.938;4.348;2023-03-21T08:50:36;101896.00;;;12.61;81.30
17362;BME280;8798;51.938;4.348;2023-03-21T08:53:04;101894.84;;;12.64;81.46
17362;BME280;8798;51.938;4.348;2023-03-21T08:55:31;101892.16;;;12.64;81.71
17362;BME280;8798;51.938;4.348;2023-03-21T08:58:01;101892.84;;;12.66;81.16
17362;BME280;8798;51.938;4.348;2023-03-21T09:00:30;101886.47;;;12.67;81.38
17362;BME280;8798;51.938;4.348;2023-03-21T09:02:58;101881.94;;;12.67;80.87
17362;BME280;8798;51.938;4.348;2023-03-21T09:05:27;101877.25;;;12.69;81.10
17362;BME280;8798;51.938;4.348;2023-03-21T09:07:54;101880.53;;;12.73;81.40
17362;BME280;8798;51.938;4.348;2023-03-21T09:10:23;101912.16;;;12.81;80.75
17362;BME280;8798;51.938;4.348;2023-03-21T09:12:52;101938.31;;;12.90;80.86
17362;BME280;8798;51.938;4.348;2023-03-21T09:15:21;101947.84;;;12.94;80.97
17362;BME280;8798;51.938;4.348;2023-03-21T09:17:51;101951.97;;;12.98;80.89
17362;BME280;8798;51.938;4.348;2023-03-21T09:20:22;101955.22;;;13.02;80.64
17362;BME280;8798;51.938;4.348;2023-03-21T09:22:57;101962.91;;;13.06;80.55
17362;BME280;8798;51.938;4.348;2023-03-21T09:25:25;101963.63;;;13.08;80.53
17362;BME280;8798;51.938;4.348;2023-03-21T09:27:55;101957.22;;;13.09;80.80
17362;BME280;8798;51.938;4.348;2023-03-21T09:30:23;101962.31;;;13.12;80.86
17362;BME280;8798;51.938;4.348;2023-03-21T09:32:53;101973.53;;;13.18;80.20
17362;BME280;8798;51.938;4.348;2023-03-21T09:35:22;101996.28;;;13.25;80.44
17362;BME280;8798;51.938;4.348;2023-03-21T09:37:52;102000.31;;;13.30;80.50
17362;BME280;8798;51.938;4.348;2023-03-21T09:40:31;102016.94;;;13.36;80.05
17362;BME280;8798;51.938;4.348;2023-03-21T09:43:16;102019.34;;;13.39;80.08
17362;BME280;8798;51.938;4.348;2023-03-21T09:45:53;102013.81;;;13.40;80.13
17362;BME280;8798;51.938;4.348;2023-03-21T09:48:33;102026.72;;;13.46;80.35
17362;BME280;8798;51.938;4.348;2023-03-21T09:51:14;102037.94;;;13.51;79.92
17362;BME280;8798;51.938;4.348;2023-03-21T09:53:46;102013.66;;;13.51;80.07
17362;BME280;8798;51.938;4.348;2023-03-21T09:56:15;101999.59;;;13.48;79.87
17362;BME280;8798;51.938;4.348;2023-03-21T09:58:45;101987.78;;;13.49;79.65
17362;BME280;8798;51.938;4.348;2023-03-21T10:01:20;101969.03;;;13.47;79.69
17362;BME280;8798;51.938;4.348;2023-03-21T10:03:55;101946.75;;;13.45;79.63
17362;BME280;8798;51.938;4.348;2023-03-21T10:06:26;101929.00;;;13.43;79.29
17362;BME280;8798;51.938;4.348;2023-03-21T10:08:58;101936.63;;;13.47;79.51
17362;BME280;8798;51.938;4.348;2023-03-21T10:11:30;101954.13;;;13.53;79.44
17362;BME280;8798;51.938;4.348;2023-03-21T10:14:02;101974.84;;;13.62;79.19
17362;BME280;8798;51.938;4.348;2023-03-21T10:16:33;102008.38;;;13.69;79.22
17362;BME280;8798;51.938;4.348;2023-03-21T10:19:11;102029.97;;;13.79;79.33
17362;BME280;8798;51.938;4.348;2023-03-21T10:21:40;102009.50;;;13.76;79.11
17362;BME280;8798;51.938;4.348;2023-03-21T10:24:31;101984.50;;;13.74;78.84
17362;BME280;8798;51.938;4.348;2023-03-21T10:27:01;101952.69;;;13.68;78.85
17362;BME280;8798;51.938;4.348;2023-03-21T10:29:32;101928.69;;;13.65;78.86
17362;BME280;8798;51.938;4.348;2023-03-21T10:32:03;101904.66;;;13.62;78.96
17362;BME280;8798;51.938;4.348;2023-03-21T10:34:36;101884.34;;;13.58;78.90
17362;BME280;8798;51.938;4.348;2023-03-21T10:37:06;101834.78;;;13.49;78.52
17362;BME280;8798;51.938;4.348;2023-03-21T10:39:36;101818.75;;;13.48;78.48
17362;BME280;8798;51.938;4.348;2023-03-21T10:42:06;101830.94;;;13.52;78.28
17362;BME280;8798;51.938;4.348;2023-03-21T10:44:37;101849.25;;;13.58;78.25
17362;BME280;8798;51.938;4.348;2023-03-21T10:47:06;101847.28;;;13.60;78.26
17362;BME280;8798;51.938;4.348;2023-03-21T10:49:37;101863.00;;;13.65;78.35
17362;BME280;8798;51.938;4.348;2023-03-21T10:52:27;101892.69;;;13.74;78.32
17362;BME280;8798;51.938;4.348;2023-03-21T10:55:06;101916.13;;;13.84;78.08
17362;BME280;8798;51.938;4.348;2023-03-21T10:57:35;101936.13;;;13.91;78.24
17362;BME280;8798;51.938;4.348;2023-03-21T11:00:06;101940.53;;;13.92;78.15
17362;BME280;8798;51.938;4.348;2023-03-21T11:02:40;101935.84;;;13.94;78.08
17362;BME280;8798;51.938;4.348;2023-03-21T11:05:18;101933.84;;;13.96;78.01
17362;BME280;8798;51.938;4.348;2023-03-21T11:07:56;101919.50;;;13.95;78.02
17362;BME280;8798;51.938;4.348;2023-03-21T11:10:27;101889.38;;;13.90;78.01
17362;BME280;8798;51.938;4.348;2023-03-21T11:12:56;101873.31;;;13.89;77.85
17362;BME280;8798;51.938;4.348;2023-03-21T11:15:28;101865.38;;;13.87;77.54
17362;BME280;8798;51.938;4.348;2023-03-21T11:17:57;101846.47;;;13.87;77.59
17362;BME280;8798;51.938;4.348;2023-03-21T11:20:28;101832.25;;;13.85;77.66
17362;BME280;8798;51.938;4.348;2023-03-21T11:22:57;101820.75;;;13.83;77.38
17362;BME280;8798;51.938;4.348;2023-03-21T11:25:31;101794.03;;;13.80;77.16
17362;BME280;8798;51.938;4.348;2023-03-21T11:28:04;101785.06;;;13.80;77.23
17362;BME280;8798;51.938;4.348;2023-03-21T11:30:33;101770.88;;;13.77;77.30
17362;BME280;8798;51.938;4.348;2023-03-21T11:33:02;101784.91;;;13.81;77.03
17362;BME280;8798;51.938;4.348;2023-03-21T11:35:36;101814.44;;;13.92;77.24
17362;BME280;8798;51.938;4.348;2023-03-21T11:38:06;101838.16;;;13.98;76.89
17362;BME280;8798;51.938;4.348;2023-03-21T11:40:52;101888.84;;;14.14;76.85
17362;BME280;8798;51.938;4.348;2023-03-21T11:43:29;101921.38;;;14.23;76.82
17362;BME280;8798;51.938;4.348;2023-03-21T11:46:01;101940.41;;;14.31;76.67
17362;BME280;8798;51.938;4.348;2023-03-21T11:48:35;101973.66;;;14.41;76.55
17362;BME280;8798;51.938;4.348;2023-03-21T11:51:13;102020.00;;;14.56;76.34
17362;BME280;8798;51.938;4.348;2023-03-21T11:53:50;102055.84;;;14.68;76.39
17362;BME280;8798;51.938;4.348;2023-03-21T11:56:25;102021.13;;;14.63;76.18
17362;BME280;8798;51.938;4.348;2023-03-21T12:02:02;101945.72;;;14.50;75.81
17362;BME280;8798;51.938;4.348;2023-03-21T12:04:39;101944.56;;;14.53;75.87
17362;BME280;8798;51.938;4.348;2023-03-21T12:07:26;101917.66;;;14.51;75.68
17362;BME280;8798;51.938;4.348;2023-03-21T12:10:09;101877.19;;;14.41;75.58
17362;BME280;8798;51.938;4.348;2023-03-21T12:12:47;101846.19;;;14.36;75.43
17362;BME280;8798;51.938;4.348;2023-03-21T12:15:22;101837.94;;;14.37;75.26
17362;BME280;8798;51.938;4.348;2023-03-21T12:17:57;101850.00;;;14.43;75.28
17362;BME280;8798;51.938;4.348;2023-03-21T12:20:45;101892.19;;;14.54;75.00
17362;BME280;8798;51.938;4.348;2023-03-21T12:23:40;101892.78;;;14.57;74.77
17362;BME280;8798;51.938;4.348;2023-03-21T12:26:20;101876.53;;;14.57;74.77
17362;BME280;8798;51.938;4.348;2023-03-21T12:28:58;101897.56;;;14.63;74.76
17362;BME280;8798;51.938;4.348;2023-03-21T12:31:39;101865.41;;;14.60;74.73
17362;BME280;8798;51.938;4.348;2023-03-21T12:34:19;101851.19;;;14.58;74.48
17362;BME280;8798;51.938;4.348;2023-03-21T12:37:07;101841.25;;;14.59;74.12
17362;BME280;8798;51.938;4.348;2023-03-21T12:39:40;101853.31;;;14.65;74.18
17362;BME280;8798;51.938;4.348;2023-03-21T12:42:39;101888.53;;;14.73;74.16
17362;BME280;8798;51.938;4.348;2023-03-21T12:45:16;101922.34;;;14.87;74.09
17362;BME280;8798;51.938;4.348;2023-03-21T12:47:48;101934.53;;;14.91;74.07
17362;BME280;8798;51.938;4.348;2023-03-21T12:50:21;101907.09;;;14.86;73.91
17362;BME280;8798;51.938;4.348;2023-03-21T12:52:53;101886.47;;;14.84;73.68
17362;BME280;8798;51.938;4.348;2023-03-21T12:55:25;101868.69;;;14.82;73.81
17362;BME280;8798;51.938;4.348;2023-03-21T12:57:59;101866.69;;;14.84;73.69
17362;BME280;8798;51.938;4.348;2023-03-21T13:00:33;101886.53;;;14.93;73.73
17362;BME280;8798;51.938;4.348;2023-03-21T13:03:04;101883.69;;;14.94;73.52
17362;BME280;8798;51.938;4.348;2023-03-21T13:05:38;101877.44;;;14.94;73.36
17362;BME280;8798;51.938;4.348;2023-03-21T13:08:13;101841.00;;;14.88;73.20
17362;BME280;8798;51.938;4.348;2023-03-21T13:10:46;101818.81;;;14.84;73.11
17362;BME280;8798;51.938;4.348;2023-03-21T13:13:18;101795.66;;;14.82;73.05
17362;BME280;8798;51.938;4.348;2023-03-21T13:16:10;101762.81;;;14.77;73.06
17362;BME280;8798;51.938;4.348;2023-03-21T13:18:49;101732.66;;;14.72;73.27
17362;BME280;8798;51.938;4.348;2023-03-21T13:21:27;101693.75;;;14.65;72.86
17362;BME280;8798;51.938;4.348;2023-03-21T13:24:00;101681.19;;;14.63;72.77
17362;BME280;8798;51.938;4.348;2023-03-21T13:26:38;101675.78;;;14.63;72.67
17362;BME280;8798;51.938;4.348;2023-03-21T13:29:21;101626.38;;;14.53;72.83
17362;BME280;8798;51.938;4.348;2023-03-21T13:31:50;101604.19;;;14.50;72.55